sensor_id;sensor_type;location;lat;lon;timestamp;P1;durP1;ratioP1;P2;durP2;ratioP2
1122;SDS011;548;48.778;9.252;2022-09-20T01:39:52;18.40;;;17.10;;
1122;SDS011;548;48.778;9.252;2022-09-20T01:42:29;18.43;;;17.30;;
1122;SDS011;548;48.778;9.252;2022-09-20T01:44:59;18.03;;;16.70;;
1122;SDS011;548;48.778;9.252;2022-09-20T01:47:34;19.03;;;17.47;;
1122;SDS011;548;48.778;9.252;2022-09-20T01:50:06;17.60;;;16.60;;
1122;SDS011;548;48.778;9.252;2022-09-20T02:02:18;16.80;;;16.00;;
1122;SDS011;548;48.778;9.252;2022-09-20T02:05:05;17.63;;;16.73;;
1122;SDS011;548;48.778;9.252;2022-09-20T02:13:36;18.27;;;17.20;;
1122;SDS011;548;48.778;9.252;2022-09-20T02:22:29;17.23;;;16.20;;
1122;SDS011;548;48.778;9.252;2022-09-20T02:25:07;17.80;;;16.70;;
1122;SDS011;548;48.778;9.252;2022-09-20T02:27:45;17.90;;;16.40;;
1122;SDS011;548;48.778;9.252;2022-09-20T02:30:27;16.67;;;15.60;;
1122;SDS011;548;48.778;9.252;2022-09-20T02:33:05;18.00;;;16.60;;
1122;SDS011;548;48.778;9.252;2022-09-20T02:35:46;17.97;;;16.97;;
1122;SDS011;548;48.778;9.252;2022-09-20T02:38:31;18.70;;;17.50;;
1122;SDS011;548;48.778;9.252;2022-09-20T02:41:13;18.63;;;17.20;;
1122;SDS011;548;48.778;9.252;2022-09-20T02:44:16;17.63;;;16.47;;
1122;SDS011;548;48.778;9.252;2022-09-20T02:46:53;17.97;;;16.80;;
1122;SDS011;548;48.778;9.252;2022-09-20T02:49:28;17.57;;;16.50;;
1122;SDS011;548;48.778;9.252;2022-09-20T02:52:03;18.00;;;17.00;;
1122;SDS011;548;48.778;9.252;2022-09-20T02:54:41;18.00;;;16.67;;
1122;SDS011;548;48.778;9.252;2022-09-20T02:57:18;17.97;;;17.13;;
1122;SDS011;548;48.778;9.252;2022-09-20T02:59:51;17.63;;;16.83;;
1122;SDS011;548;48.778;9.252;2022-09-20T03:02:25;18.20;;;17.20;;
1122;SDS011;548;48.778;9.252;2022-09-20T03:05:00;18.60;;;17.27;;
1122;SDS011;548;48.778;9.252;2022-09-20T03:07:38;17.40;;;16.43;;
1122;SDS011;548;48.778;9.252;2022-09-20T03:10:19;19.97;;;18.77;;
1122;SDS011;548;48.778;9.252;2022-09-20T03:12:53;17.30;;;16.50;;
1122;SDS011;548;48.778;9.252;2022-09-20T03:15:30;17.63;;;16.50;;
1122;SDS011;548;48.778;9.252;2022-09-20T03:18:08;18.83;;;17.33;;
1122;SDS011;548;48.778;9.252;2022-09-20T03:20:40;17.50;;;16.27;;
1122;SDS011;548;48.778;9.252;2022-09-20T03:23:21;16.60;;;15.80;;
1122;SDS011;548;48.778;9.252;2022-09-20T03:26:01;18.67;;;17.50;;
1122;SDS011;548;48.778;9.252;2022-09-20T03:28:45;17.57;;;16.50;;
1122;SDS011;548;48.778;9.252;2022-09-20T08:53:03;12.70;;;11.90;;
1122;SDS011;548;48.778;9.252;2022-09-20T08:55:33;13.17;;;12.30;;
1122;SDS011;548;48.778;9.252;2022-09-20T08:58:04;13.43;;;12.60;;
1122;SDS011;548;48.778;9.252;2022-09-20T09:00:31;13.33;;;12.03;;
1122;SDS011;548;48.778;9.252;2022-09-20T09:06:21;13.93;;;13.20;;
1122;SDS011;548;48.778;9.252;2022-09-20T09:12:18;15.53;;;14.53;;
1122;SDS011;548;48.778;9.252;2022-09-20T09:14:47;12.80;;;12.20;;
1122;SDS011;548;48.778;9.252;2022-09-20T09:17:19;13.70;;;12.97;;
1122;SDS011;548;48.778;9.252;2022-09-20T09:19:48;13.40;;;12.60;;
1122;SDS011;548;48.778;9.252;2022-09-20T09:22:17;16.83;;;14.13;;
1122;SDS011;548;48.778;9.252;2022-09-20T09:24:51;13.93;;;13.33;;
1122;SDS011;548;48.778;9.252;2022-09-20T09:27:49;12.90;;;12.30;;
1122;SDS011;548;48.778;9.252;2022-09-20T09:30:19;13.57;;;12.40;;
1122;SDS011;548;48.778;9.252;2022-09-20T09:32:46;13.43;;;12.27;;
1122;SDS011;548;48.778;9.252;2022-09-20T09:35:24;14.23;;;13.23;;
1122;SDS011;548;48.778;9.252;2022-09-20T09:37:55;12.97;;;12.03;;
1122;SDS011;548;48.778;9.252;2022-09-20T09:40:24;12.23;;;11.57;;
1122;SDS011;548;48.778;9.252;2022-09-20T09:42:53;13.37;;;12.30;;
1122;SDS011;548;48.778;9.252;2022-09-20T09:45:30;13.07;;;12.27;;
1122;SDS011;548;48.778;9.252;2022-09-20T09:48:00;14.10;;;13.00;;
1122;SDS011;548;48.778;9.252;2022-09-20T09:50:29;14.10;;;13.13;;
1122;SDS011;548;48.778;9.252;2022-09-20T09:53:02;13.37;;;12.43;;
1122;SDS011;548;48.778;9.252;2022-09-20T09:55:42;13.90;;;12.87;;
1122;SDS011;548;48.778;9.252;2022-09-20T09:58:40;13.70;;;12.60;;
1122;SDS011;548;48.778;9.252;2022-09-20T10:01:23;12.90;;;12.30;;
1122;SDS011;548;48.778;9.252;2022-09-20T10:03:57;13.00;;;11.67;;
1122;SDS011;548;48.778;9.252;2022-09-20T10:06:32;13.63;;;12.73;;
1122;SDS011;548;48.778;9.252;2022-09-20T10:09:07;12.67;;;12.00;;
1122;SDS011;548;48.778;9.252;2022-09-20T10:11:49;12.60;;;12.00;;
1122;SDS011;548;48.778;9.252;2022-09-20T10:14:41;13.27;;;12.43;;
1122;SDS011;548;48.778;9.252;2022-09-20T10:17:18;13.13;;;12.30;;
1122;SDS011;548;48.778;9.252;2022-09-20T10:19:59;13.20;;;12.50;;
1122;SDS011;548;48.778;9.252;2022-09-20T10:22:36;13.60;;;12.70;;
1122;SDS011;548;48.778;9.252;2022-09-20T10:25:14;13.40;;;12.53;;
1122;SDS011;548;48.778;9.252;2022-09-20T10:27:51;12.93;;;12.23;;
1122;SDS011;548;48.778;9.252;2022-09-20T10:30:28;13.13;;;12.20;;
1122;SDS011;548;48.778;9.252;2022-09-20T10:33:09;12.80;;;11.97;;
1122;SDS011;548;48.778;9.252;2022-09-20T10:35:48;13.63;;;12.93;;
1122;SDS011;548;48.778;9.252;2022-09-20T10:38:21;13.10;;;12.60;;
1122;SDS011;548;48.778;9.252;2022-09-20T10:41:02;12.33;;;11.77;;
1122;SDS011;548;48.778;9.252;2022-09-20T10:44:08;13.70;;;12.80;;
1122;SDS011;548;48.778;9.252;2022-09-20T10:46:46;12.90;;;11.90;;
1122;SDS011;548;48.778;9.252;2022-09-20T10:49:25;12.83;;;12.13;;
1122;SDS011;548;48.778;9.252;2022-09-20T10:54:49;13.77;;;12.57;;
1122;SDS011;548;48.778;9.252;2022-09-20T10:57:40;13.80;;;13.00;;
1122;SDS011;548;48.778;9.252;2022-09-20T11:00:19;13.43;;;12.83;;
1122;SDS011;548;48.778;9.252;2022-09-20T11:02:53;13.20;;;12.60;;
1122;SDS011;548;48.778;9.252;2022-09-20T11:05:34;12.90;;;12.30;;
1122;SDS011;548;48.778;9.252;2022-09-20T11:08:11;13.90;;;13.20;;
1122;SDS011;548;48.778;9.252;2022-09-20T11:10:43;12.93;;;12.43;;
1122;SDS011;548;48.778;9.252;2022-09-20T11:13:18;14.73;;;13.93;;
1122;SDS011;548;48.778;9.252;2022-09-20T11:15:53;15.03;;;14.10;;
1122;SDS011;548;48.778;9.252;2022-09-20T11:18:27;15.60;;;14.60;;
1122;SDS011;548;48.778;9.252;2022-09-20T11:21:01;14.00;;;13.00;;
1122;SDS011;548;48.778;9.252;2022-09-20T11:23:36;14.23;;;13.53;;
1122;SDS011;548;48.778;9.252;2022-09-20T11:26:09;13.60;;;13.00;;
1122;SDS011;548;48.778;9.252;2022-09-20T11:28:42;15.20;;;14.40;;
1122;SDS011;548;48.778;9.252;2022-09-20T11:31:13;14.73;;;14.00;;
1122;SDS011;548;48.778;9.252;2022-09-20T11:33:47;13.10;;;12.10;;
1122;SDS011;548;48.778;9.252;2022-09-20T11:36:20;14.77;;;13.87;;
1122;SDS011;548;48.778;9.252;2022-09-20T11:38:52;13.27;;;12.47;;
1122;SDS011;548;48.778;9.252;2022-09-20T11:41:23;13.43;;;12.87;;
1122;SDS011;548;48.778;9.252;2022-09-20T11:43:52;14.00;;;13.40;;
1122;SDS011;548;48.778;9.252;2022-09-20T11:46:22;13.50;;;12.80;;
1122;SDS011;548;48.778;9.252;2022-09-20T11:48:55;14.40;;;13.70;;
1122;SDS011;548;48.778;9.252;2022-09-20T11:51:32;15.10;;;14.00;;
1122;SDS011;548;48.778;9.252;2022-09-20T11:54:16;14.03;;;13.23;;
1122;SDS011;548;48.778;9.252;2022-09-20T11:56:52;13.83;;;13.30;;
1122;SDS011;548;48.778;9.252;2022-09-20T11:59:25;13.70;;;13.10;;
1122;SDS011;548;48.778;9.252;2022-09-20T12:01:55;14.20;;;13.30;;
1122;SDS011;548;48.778;9.252;2022-09-20T12:04:27;13.70;;;13.10;;
1122;SDS011;548;48.778;9.252;2022-09-20T12:06:57;14.50;;;13.70;;
1122;SDS011;548;48.778;9.252;2022-09-20T12:09:28;13.80;;;13.17;;
1122;SDS011;548;48.778;9.252;2022-09-20T12:11:57;12.07;;;11.47;;
1122;SDS011;548;48.778;9.252;2022-09-20T12:14:26;14.03;;;13.40;;
1122;SDS011;548;48.778;9.252;2022-09-20T12:16:56;12.63;;;12.13;;
1122;SDS011;548;48.778;9.252;2022-09-20T12:19:37;12.20;;;11.60;;
1122;SDS011;548;48.778;9.252;2022-09-20T12:22:15;14.33;;;13.63;;
1122;SDS011;548;48.778;9.252;2022-09-20T12:27:55;14.03;;;13.40;;
1122;SDS011;548;48.778;9.252;2022-09-20T12:30:23;14.73;;;13.40;;
1122;SDS011;548;48.778;9.252;2022-09-20T12:32:50;14.40;;;13.70;;
1122;SDS011;548;48.778;9.252;2022-09-20T12:35:52;14.17;;;13.40;;
1122;SDS011;548;48.778;9.252;2022-09-20T12:38:29;13.73;;;13.03;;
1122;SDS011;548;48.778;9.252;2022-09-20T12:41:00;13.40;;;12.83;;
1122;SDS011;548;48.778;9.252;2022-09-20T12:43:30;13.87;;;13.20;;
1122;SDS011;548;48.778;9.252;2022-09-20T12:45:59;13.10;;;12.60;;
1122;SDS011;548;48.778;9.252;2022-09-20T12:48:26;13.77;;;13.03;;
1122;SDS011;548;48.778;9.252;2022-09-20T12:51:01;13.93;;;13.33;;
1122;SDS011;548;48.778;9.252;2022-09-20T12:53:57;14.50;;;13.60;;
1122;SDS011;548;48.778;9.252;2022-09-20T12:56:27;14.00;;;13.17;;
1122;SDS011;548;48.778;9.252;2022-09-20T12:58:58;13.67;;;12.57;;
1122;SDS011;548;48.778;9.252;2022-09-20T13:01:34;13.27;;;12.47;;
1122;SDS011;548;48.778;9.252;2022-09-20T13:10:29;14.07;;;13.47;;
1122;SDS011;548;48.778;9.252;2022-09-20T13:13:02;14.20;;;13.40;;
1122;SDS011;548;48.778;9.252;2022-09-20T13:15:37;13.23;;;12.20;;
1122;SDS011;548;48.778;9.252;2022-09-20T13:18:04;12.20;;;11.60;;
1122;SDS011;548;48.778;9.252;2022-09-20T13:20:32;12.90;;;12.03;;
1122;SDS011;548;48.778;9.252;2022-09-20T13:23:02;12.93;;;12.17;;
1122;SDS011;548;48.778;9.252;2022-09-20T13:25:30;13.43;;;12.50;;
1122;SDS011;548;48.778;9.252;2022-09-20T13:28:01;13.10;;;12.50;;
1122;SDS011;548;48.778;9.252;2022-09-20T13:30:32;13.17;;;12.07;;
1122;SDS011;548;48.778;9.252;2022-09-20T13:33:13;12.87;;;12.37;;
1122;SDS011;548;48.778;9.252;2022-09-20T13:35:42;13.00;;;12.40;;
1122;SDS011;548;48.778;9.252;2022-09-20T13:38:12;12.83;;;12.10;;
1122;SDS011;548;48.778;9.252;2022-09-20T13:40:44;11.97;;;11.30;;
1122;SDS011;548;48.778;9.252;2022-09-20T13:43:16;11.90;;;11.40;;
1122;SDS011;548;48.778;9.252;2022-09-20T13:45:51;12.20;;;11.57;;
1122;SDS011;548;48.778;9.252;2022-09-20T13:48:22;13.07;;;12.23;;
1122;SDS011;548;48.778;9.252;2022-09-20T13:50:50;12.70;;;12.10;;
1122;SDS011;548;48.778;9.252;2022-09-20T13:53:20;12.97;;;12.17;;
1122;SDS011;548;48.778;9.252;2022-09-20T13:55:48;12.47;;;11.90;;
1122;SDS011;548;48.778;9.252;2022-09-20T13:58:19;13.00;;;12.10;;
1122;SDS011;548;48.778;9.252;2022-09-20T14:00:49;11.93;;;11.27;;
1122;SDS011;548;48.778;9.252;2022-09-20T14:03:18;12.17;;;11.60;;
1122;SDS011;548;48.778;9.252;2022-09-20T14:05:47;12.10;;;11.43;;
1122;SDS011;548;48.778;9.252;2022-09-20T14:08:17;12.53;;;11.37;;
1122;SDS011;548;48.778;9.252;2022-09-20T14:10:49;12.33;;;11.53;;
1122;SDS011;548;48.778;9.252;2022-09-20T14:13:29;12.37;;;11.40;;
1122;SDS011;548;48.778;9.252;2022-09-20T14:16:00;12.87;;;11.73;;
1122;SDS011;548;48.778;9.252;2022-09-20T14:18:27;11.83;;;10.87;;
1122;SDS011;548;48.778;9.252;2022-09-20T14:20:54;12.53;;;11.53;;
1122;SDS011;548;48.778;9.252;2022-09-20T14:23:24;11.67;;;10.87;;
1122;SDS011;548;48.778;9.252;2022-09-20T14:26:04;12.53;;;11.50;;
1122;SDS011;548;48.778;9.252;2022-09-20T14:28:31;12.50;;;11.30;;
1122;SDS011;548;48.778;9.252;2022-09-20T14:31:03;11.90;;;11.40;;
1122;SDS011;548;48.778;9.252;2022-09-20T14:33:32;12.87;;;11.93;;
1122;SDS011;548;48.778;9.252;2022-09-20T14:36:05;12.13;;;11.40;;
1122;SDS011;548;48.778;9.252;2022-09-20T14:38:41;13.80;;;12.93;;
1122;SDS011;548;48.778;9.252;2022-09-20T14:41:09;12.70;;;12.00;;
1122;SDS011;548;48.778;9.252;2022-09-20T14:43:36;13.53;;;12.57;;
1122;SDS011;548;48.778;9.252;2022-09-20T14:46:04;13.47;;;12.17;;
1122;SDS011;548;48.778;9.252;2022-09-20T14:48:33;11.87;;;11.23;;
1122;SDS011;548;48.778;9.252;2022-09-20T14:51:08;12.37;;;11.57;;
1122;SDS011;548;48.778;9.252;2022-09-20T14:53:48;12.23;;;11.63;;
1122;SDS011;548;48.778;9.252;2022-09-20T14:56:18;11.77;;;11.17;;
1122;SDS011;548;48.778;9.252;2022-09-20T14:59:02;12.10;;;11.60;;
1122;SDS011;548;48.778;9.252;2022-09-20T15:01:31;12.90;;;12.10;;
1122;SDS011;548;48.778;9.252;2022-09-20T15:03:58;12.43;;;11.80;;
1122;SDS011;548;48.778;9.252;2022-09-20T15:06:33;12.70;;;12.00;;
1122;SDS011;548;48.778;9.252;2022-09-20T15:09:01;11.83;;;11.23;;
1122;SDS011;548;48.778;9.252;2022-09-20T15:11:28;11.03;;;10.43;;
1122;SDS011;548;48.778;9.252;2022-09-20T15:13:55;11.13;;;10.63;;
1122;SDS011;548;48.778;9.252;2022-09-20T15:16:21;12.10;;;11.60;;
1122;SDS011;548;48.778;9.252;2022-09-20T15:18:49;12.10;;;11.60;;
1122;SDS011;548;48.778;9.252;2022-09-20T15:21:15;12.90;;;12.23;;
1122;SDS011;548;48.778;9.252;2022-09-20T15:23:43;12.60;;;11.80;;
1122;SDS011;548;48.778;9.252;2022-09-20T15:26:11;12.93;;;12.33;;
1122;SDS011;548;48.778;9.252;2022-09-20T15:28:39;11.97;;;11.47;;
1122;SDS011;548;48.778;9.252;2022-09-20T15:31:05;15.20;;;13.73;;
1122;SDS011;548;48.778;9.252;2022-09-20T15:33:32;11.97;;;11.47;;
1122;SDS011;548;48.778;9.252;2022-09-20T15:36:00;12.87;;;12.07;;
1122;SDS011;548;48.778;9.252;2022-09-20T15:38:27;12.43;;;11.70;;
1122;SDS011;548;48.778;9.252;2022-09-20T15:40:54;13.23;;;12.50;;
1122;SDS011;548;48.778;9.252;2022-09-20T15:43:25;12.53;;;11.93;;
1122;SDS011;548;48.778;9.252;2022-09-20T15:45:54;11.00;;;10.60;;
1122;SDS011;548;48.778;9.252;2022-09-20T15:48:24;12.40;;;11.80;;
1122;SDS011;548;48.778;9.252;2022-09-20T15:50:59;12.40;;;11.57;;
1122;SDS011;548;48.778;9.252;2022-09-20T15:53:27;11.37;;;10.90;;
1122;SDS011;548;48.778;9.252;2022-09-20T15:55:56;11.80;;;11.10;;
1122;SDS011;548;48.778;9.252;2022-09-20T15:58:27;10.33;;;9.93;;
1122;SDS011;548;48.778;9.252;2022-09-20T16:01:00;11.67;;;11.07;;
1122;SDS011;548;48.778;9.252;2022-09-20T16:03:29;11.10;;;10.60;;
1122;SDS011;548;48.778;9.252;2022-09-20T16:05:56;12.17;;;11.23;;
1122;SDS011;548;48.778;9.252;2022-09-20T16:08:24;11.57;;;10.77;;
1122;SDS011;548;48.778;9.252;2022-09-20T16:10:54;11.27;;;10.67;;
1122;SDS011;548;48.778;9.252;2022-09-20T16:13:22;11.30;;;10.80;;
1122;SDS011;548;48.778;9.252;2022-09-20T16:15:53;11.90;;;11.30;;
1122;SDS011;548;48.778;9.252;2022-09-20T16:18:20;11.60;;;11.10;;
1122;SDS011;548;48.778;9.252;2022-09-20T16:21:05;12.17;;;11.30;;
1122;SDS011;548;48.778;9.252;2022-09-20T16:23:37;11.60;;;11.00;;
1122;SDS011;548;48.778;9.252;2022-09-20T16:26:05;12.77;;;12.20;;
1122;SDS011;548;48.778;9.252;2022-09-20T16:28:36;10.80;;;10.30;;
1122;SDS011;548;48.778;9.252;2022-09-20T16:31:05;10.83;;;10.27;;
1122;SDS011;548;48.778;9.252;2022-09-20T16:33:32;10.03;;;9.53;;
1122;SDS011;548;48.778;9.252;2022-09-20T16:35:59;11.40;;;10.80;;
1122;SDS011;548;48.778;9.252;2022-09-20T16:38:26;11.87;;;11.27;;
1122;SDS011;548;48.778;9.252;2022-09-20T16:40:53;13.13;;;12.43;;
1122;SDS011;548;48.778;9.252;2022-09-20T16:43:22;11.47;;;10.97;;
1122;SDS011;548;48.778;9.252;2022-09-20T16:45:56;12.13;;;11.53;;
1122;SDS011;548;48.778;9.252;2022-09-20T16:48:25;13.93;;;13.33;;
1122;SDS011;548;48.778;9.252;2022-09-20T16:50:54;10.33;;;9.93;;
1122;SDS011;548;48.778;9.252;2022-09-20T16:53:21;11.83;;;11.07;;
1122;SDS011;548;48.778;9.252;2022-09-20T16:55:48;11.37;;;10.80;;
1122;SDS011;548;48.778;9.252;2022-09-20T16:58:15;12.50;;;11.70;;
1122;SDS011;548;48.778;9.252;2022-09-20T17:00:42;11.43;;;10.80;;
1122;SDS011;548;48.778;9.252;2022-09-20T17:03:08;12.30;;;11.57;;
1122;SDS011;548;48.778;9.252;2022-09-20T17:05:37;10.50;;;9.80;;
1122;SDS011;548;48.778;9.252;2022-09-20T17:08:06;11.60;;;11.00;;
1122;SDS011;548;48.778;9.252;2022-09-20T17:10:33;11.13;;;10.33;;
1122;SDS011;548;48.778;9.252;2022-09-20T17:13:00;13.00;;;12.10;;
1122;SDS011;548;48.778;9.252;2022-09-20T17:15:27;12.03;;;11.50;;
1122;SDS011;548;48.778;9.252;2022-09-20T17:17:54;12.07;;;11.20;;
1122;SDS011;548;48.778;9.252;2022-09-20T17:20:21;11.60;;;11.10;;
1122;SDS011;548;48.778;9.252;2022-09-20T17:22:52;13.30;;;12.40;;
1122;SDS011;548;48.778;9.252;2022-09-20T17:25:19;12.07;;;11.30;;
1122;SDS011;548;48.778;9.252;2022-09-20T17:27:46;12.47;;;11.70;;
1122;SDS011;548;48.778;9.252;2022-09-20T17:30:15;11.57;;;10.77;;
1122;SDS011;548;48.778;9.252;2022-09-20T17:32:41;12.47;;;11.60;;
1122;SDS011;548;48.778;9.252;2022-09-20T17:35:14;12.60;;;11.73;;
1122;SDS011;548;48.778;9.252;2022-09-20T17:37:42;10.87;;;10.47;;
1122;SDS011;548;48.778;9.252;2022-09-20T17:40:10;11.70;;;11.00;;
1122;SDS011;548;48.778;9.252;2022-09-20T17:42:37;11.97;;;10.83;;
1122;SDS011;548;48.778;9.252;2022-09-20T17:45:05;11.70;;;11.10;;
1122;SDS011;548;48.778;9.252;2022-09-20T17:47:32;11.70;;;10.80;;
1122;SDS011;548;48.778;9.252;2022-09-20T17:49:59;11.70;;;11.00;;
1122;SDS011;548;48.778;9.252;2022-09-20T17:52:26;11.97;;;11.03;;
1122;SDS011;548;48.778;9.252;2022-09-20T17:54:52;12.03;;;11.37;;
1122;SDS011;548;48.778;9.252;2022-09-20T17:57:20;12.57;;;11.93;;
1122;SDS011;548;48.778;9.252;2022-09-20T17:59:47;13.20;;;12.40;;
1122;SDS011;548;48.778;9.252;2022-09-20T18:02:13;14.30;;;13.50;;
1122;SDS011;548;48.778;9.252;2022-09-20T18:04:40;14.77;;;13.40;;
1122;SDS011;548;48.778;9.252;2022-09-20T18:07:07;13.97;;;12.80;;
1122;SDS011;548;48.778;9.252;2022-09-20T18:09:34;13.77;;;12.53;;
1122;SDS011;548;48.778;9.252;2022-09-20T18:12:00;13.97;;;13.17;;
1122;SDS011;548;48.778;9.252;2022-09-20T18:14:30;13.37;;;12.40;;
1122;SDS011;548;48.778;9.252;2022-09-20T18:16:57;14.50;;;13.53;;
1122;SDS011;548;48.778;9.252;2022-09-20T18:19:26;11.20;;;10.60;;
1122;SDS011;548;48.778;9.252;2022-09-20T18:21:56;13.07;;;12.37;;
1122;SDS011;548;48.778;9.252;2022-09-20T18:24:23;13.03;;;12.33;;
1122;SDS011;548;48.778;9.252;2022-09-20T18:26:50;12.53;;;11.83;;
1122;SDS011;548;48.778;9.252;2022-09-20T18:29:17;13.90;;;13.10;;
1122;SDS011;548;48.778;9.252;2022-09-20T18:31:46;13.63;;;12.83;;
1122;SDS011;548;48.778;9.252;2022-09-20T18:34:14;14.80;;;13.87;;
1122;SDS011;548;48.778;9.252;2022-09-20T18:36:43;14.20;;;12.93;;
1122;SDS011;548;48.778;9.252;2022-09-20T18:39:12;15.50;;;14.40;;
1122;SDS011;548;48.778;9.252;2022-09-20T18:41:39;15.87;;;14.17;;
1122;SDS011;548;48.778;9.252;2022-09-20T18:44:08;15.53;;;14.33;;
1122;SDS011;548;48.778;9.252;2022-09-20T18:46:38;16.27;;;14.97;;
1122;SDS011;548;48.778;9.252;2022-09-20T18:49:06;14.63;;;13.63;;
1122;SDS011;548;48.778;9.252;2022-09-20T18:51:37;14.90;;;14.00;;
1122;SDS011;548;48.778;9.252;2022-09-20T18:54:04;15.33;;;14.23;;
1122;SDS011;548;48.778;9.252;2022-09-20T18:56:33;14.87;;;13.63;;
1122;SDS011;548;48.778;9.252;2022-09-20T18:59:02;14.80;;;13.80;;
1122;SDS011;548;48.778;9.252;2022-09-20T19:01:52;15.87;;;14.87;;
1122;SDS011;548;48.778;9.252;2022-09-20T19:04:30;14.57;;;13.57;;
1122;SDS011;548;48.778;9.252;2022-09-20T19:07:18;15.70;;;14.67;;
1122;SDS011;548;48.778;9.252;2022-09-20T19:09:51;16.73;;;15.60;;
1122;SDS011;548;48.778;9.252;2022-09-20T19:12:27;16.20;;;14.97;;
1122;SDS011;548;48.778;9.252;2022-09-20T19:15:02;14.97;;;13.97;;
1122;SDS011;548;48.778;9.252;2022-09-20T19:17:49;15.73;;;14.73;;
1122;SDS011;548;48.778;9.252;2022-09-20T19:20:27;15.70;;;14.80;;
1122;SDS011;548;48.778;9.252;2022-09-20T19:23:05;15.83;;;14.63;;
1122;SDS011;548;48.778;9.252;2022-09-20T19:25:43;15.37;;;14.30;;
1122;SDS011;548;48.778;9.252;2022-09-20T19:28:13;15.20;;;14.30;;
1122;SDS011;548;48.778;9.252;2022-09-20T19:30:41;15.33;;;14.10;;
1122;SDS011;548;48.778;9.252;2022-09-20T19:33:11;17.20;;;16.07;;
1122;SDS011;548;48.778;9.252;2022-09-20T19:35:42;17.20;;;16.20;;
1122;SDS011;548;48.778;9.252;2022-09-20T19:38:14;17.13;;;15.87;;
1122;SDS011;548;48.778;9.252;2022-09-20T19:40:49;18.30;;;17.20;;
1122;SDS011;548;48.778;9.252;2022-09-20T19:43:27;18.13;;;16.93;;
1122;SDS011;548;48.778;9.252;2022-09-20T19:46:04;17.90;;;16.70;;
1122;SDS011;548;48.778;9.252;2022-09-20T19:48:44;19.80;;;17.80;;
1122;SDS011;548;48.778;9.252;2022-09-20T19:51:16;17.00;;;15.83;;
1122;SDS011;548;48.778;9.252;2022-09-20T19:53:44;18.00;;;16.70;;
1122;SDS011;548;48.778;9.252;2022-09-20T19:56:14;18.50;;;17.40;;
1122;SDS011;548;48.778;9.252;2022-09-20T19:58:49;18.33;;;17.00;;
1122;SDS011;548;48.778;9.252;2022-09-20T20:01:17;18.20;;;17.20;;
1122;SDS011;548;48.778;9.252;2022-09-20T20:03:45;19.10;;;17.60;;
1122;SDS011;548;48.778;9.252;2022-09-20T20:06:13;18.77;;;17.27;;
1122;SDS011;548;48.778;9.252;2022-09-20T20:08:47;18.83;;;17.50;;
1122;SDS011;548;48.778;9.252;2022-09-20T20:11:19;16.87;;;15.77;;
1122;SDS011;548;48.778;9.252;2022-09-20T20:13:58;17.50;;;16.50;;
1122;SDS011;548;48.778;9.252;2022-09-20T20:16:37;16.30;;;15.30;;
1122;SDS011;548;48.778;9.252;2022-09-20T20:19:18;17.80;;;15.40;;
1122;SDS011;548;48.778;9.252;2022-09-20T20:21:58;17.87;;;16.80;;
1122;SDS011;548;48.778;9.252;2022-09-20T20:24:31;17.33;;;16.30;;
1122;SDS011;548;48.778;9.252;2022-09-20T20:27:04;17.23;;;16.13;;
1122;SDS011;548;48.778;9.252;2022-09-20T20:29:31;18.80;;;17.60;;
1122;SDS011;548;48.778;9.252;2022-09-20T20:31:57;17.10;;;15.97;;
1122;SDS011;548;48.778;9.252;2022-09-20T20:34:24;18.40;;;17.30;;
1122;SDS011;548;48.778;9.252;2022-09-20T20:36:51;17.50;;;15.73;;
1122;SDS011;548;48.778;9.252;2022-09-20T20:39:25;16.50;;;15.33;;
1122;SDS011;548;48.778;9.252;2022-09-20T20:41:52;16.63;;;15.63;;
1122;SDS011;548;48.778;9.252;2022-09-20T20:44:21;17.70;;;16.43;;
1122;SDS011;548;48.778;9.252;2022-09-20T20:46:47;17.53;;;16.33;;
1122;SDS011;548;48.778;9.252;2022-09-20T20:49:14;19.07;;;17.80;;
1122;SDS011;548;48.778;9.252;2022-09-20T20:51:41;18.97;;;17.57;;
1122;SDS011;548;48.778;9.252;2022-09-20T20:54:08;18.40;;;17.13;;
1122;SDS011;548;48.778;9.252;2022-09-20T20:56:37;18.53;;;17.33;;
1122;SDS011;548;48.778;9.252;2022-09-20T20:59:04;19.53;;;17.97;;
